sensor_id;sensor_type;location;lat;lon;timestamp;P1;durP1;ratioP1;P2;durP2;ratioP2
5650;SDS011;40241;52.684;9.758;2023-02-23T00:01:18;18.60;;;10.50;;
5650;SDS011;40241;52.684;9.758;2023-02-23T00:03:48;18.50;;;9.83;;
5650;SDS011;40241;52.684;9.758;2023-02-23T00:06:14;23.70;;;11.07;;
5650;SDS011;40241;52.684;9.758;2023-02-23T00:08:41;20.70;;;10.20;;
5650;SDS011;40241;52.684;9.758;2023-02-23T00:11:08;22.90;;;10.77;;
5650;SDS011;40241;52.684;9.758;2023-02-23T00:13:36;16.73;;;10.57;;
5650;SDS011;40241;52.684;9.758;2023-02-23T00:16:03;20.70;;;10.77;;
5650;SDS011;40241;52.684;9.758;2023-02-23T00:18:32;19.00;;;10.80;;
5650;SDS011;40241;52.684;9.758;2023-02-23T00:21:08;19.47;;;11.10;;
5650;SDS011;40241;52.684;9.758;2023-02-23T00:23:40;16.87;;;9.60;;
5650;SDS011;40241;52.684;9.758;2023-02-23T00:26:06;18.80;;;9.27;;
5650;SDS011;40241;52.684;9.758;2023-02-23T00:28:32;16.47;;;9.20;;
5650;SDS011;40241;52.684;9.758;2023-02-23T00:31:00;20.00;;;9.97;;
5650;SDS011;40241;52.684;9.758;2023-02-23T00:33:26;20.10;;;10.33;;
5650;SDS011;40241;52.684;9.758;2023-02-23T00:35:51;18.47;;;9.50;;
5650;SDS011;40241;52.684;9.758;2023-02-23T00:38:19;14.97;;;9.03;;
5650;SDS011;40241;52.684;9.758;2023-02-23T00:40:44;19.60;;;10.07;;
5650;SDS011;40241;52.684;9.758;2023-02-23T00:43:10;18.17;;;9.07;;
5650;SDS011;40241;52.684;9.758;2023-02-23T00:45:35;14.67;;;9.10;;
5650;SDS011;40241;52.684;9.758;2023-02-23T00:48:00;21.17;;;11.20;;
5650;SDS011;40241;52.684;9.758;2023-02-23T00:50:27;20.77;;;11.27;;
5650;SDS011;40241;52.684;9.758;2023-02-23T00:52:55;22.50;;;11.93;;
5650;SDS011;40241;52.684;9.758;2023-02-23T00:55:23;24.60;;;13.00;;
5650;SDS011;40241;52.684;9.758;2023-02-23T00:57:49;20.97;;;12.07;;
5650;SDS011;40241;52.684;9.758;2023-02-23T01:00:14;28.13;;;13.40;;
5650;SDS011;40241;52.684;9.758;2023-02-23T01:02:45;21.43;;;12.00;;
5650;SDS011;40241;52.684;9.758;2023-02-23T01:05:13;24.33;;;11.80;;
5650;SDS011;40241;52.684;9.758;2023-02-23T01:07:40;22.60;;;12.10;;
5650;SDS011;40241;52.684;9.758;2023-02-23T01:10:06;18.20;;;10.53;;
5650;SDS011;40241;52.684;9.758;2023-02-23T01:12:48;19.50;;;10.50;;
5650;SDS011;40241;52.684;9.758;2023-02-23T01:15:15;22.97;;;10.77;;
5650;SDS011;40241;52.684;9.758;2023-02-23T01:17:41;20.87;;;10.47;;
5650;SDS011;40241;52.684;9.758;2023-02-23T01:20:10;21.40;;;11.20;;
5650;SDS011;40241;52.684;9.758;2023-02-23T01:22:47;19.87;;;10.40;;
5650;SDS011;40241;52.684;9.758;2023-02-23T01:25:14;19.60;;;10.73;;
5650;SDS011;40241;52.684;9.758;2023-02-23T01:27:40;20.17;;;9.67;;
5650;SDS011;40241;52.684;9.758;2023-02-23T01:30:08;18.80;;;9.10;;
5650;SDS011;40241;52.684;9.758;2023-02-23T01:32:35;18.90;;;9.47;;
5650;SDS011;40241;52.684;9.758;2023-02-23T01:35:05;14.87;;;9.10;;
5650;SDS011;40241;52.684;9.758;2023-02-23T01:37:35;18.53;;;9.70;;
5650;SDS011;40241;52.684;9.758;2023-02-23T01:40:05;20.27;;;9.23;;
5650;SDS011;40241;52.684;9.758;2023-02-23T01:42:37;19.73;;;9.17;;
5650;SDS011;40241;52.684;9.758;2023-02-23T01:47:53;24.33;;;9.60;;
5650;SDS011;40241;52.684;9.758;2023-02-23T01:50:21;20.50;;;10.80;;
5650;SDS011;40241;52.684;9.758;2023-02-23T01:52:50;22.33;;;10.50;;
5650;SDS011;40241;52.684;9.758;2023-02-23T01:55:16;24.27;;;11.30;;
5650;SDS011;40241;52.684;9.758;2023-02-23T01:57:49;20.00;;;9.53;;
5650;SDS011;40241;52.684;9.758;2023-02-23T02:00:20;17.77;;;9.70;;
5650;SDS011;40241;52.684;9.758;2023-02-23T02:02:49;19.00;;;10.30;;
5650;SDS011;40241;52.684;9.758;2023-02-23T02:05:16;17.40;;;9.03;;
5650;SDS011;40241;52.684;9.758;2023-02-23T02:07:44;18.70;;;8.77;;
5650;SDS011;40241;52.684;9.758;2023-02-23T02:10:12;18.07;;;10.30;;
5650;SDS011;40241;52.684;9.758;2023-02-23T02:12:38;20.53;;;10.37;;
5650;SDS011;40241;52.684;9.758;2023-02-23T02:15:05;19.10;;;9.57;;
5650;SDS011;40241;52.684;9.758;2023-02-23T02:23:05;17.57;;;9.77;;
5650;SDS011;40241;52.684;9.758;2023-02-23T02:39:37;21.80;;;9.73;;
5650;SDS011;40241;52.684;9.758;2023-02-23T02:47:59;16.57;;;8.10;;
5650;SDS011;40241;52.684;9.758;2023-02-23T02:56:36;16.67;;;8.23;;
5650;SDS011;40241;52.684;9.758;2023-02-23T02:59:09;14.00;;;8.20;;
5650;SDS011;40241;52.684;9.758;2023-02-23T03:01:56;14.50;;;8.27;;
5650;SDS011;40241;52.684;9.758;2023-02-23T03:04:40;19.30;;;9.30;;
5650;SDS011;40241;52.684;9.758;2023-02-23T03:13:56;13.63;;;8.00;;
5650;SDS011;40241;52.684;9.758;2023-02-23T03:20:37;13.20;;;9.00;;
5650;SDS011;40241;52.684;9.758;2023-02-23T03:27:01;17.00;;;9.07;;
5650;SDS011;40241;52.684;9.758;2023-02-23T03:30:20;13.70;;;9.30;;
5650;SDS011;40241;52.684;9.758;2023-02-23T03:33:13;15.03;;;8.70;;
5650;SDS011;40241;52.684;9.758;2023-02-23T03:36:03;17.13;;;10.47;;
5650;SDS011;40241;52.684;9.758;2023-02-23T03:38:57;16.00;;;10.40;;
5650;SDS011;40241;52.684;9.758;2023-02-23T03:41:47;19.23;;;11.33;;
5650;SDS011;40241;52.684;9.758;2023-02-23T03:44:35;17.97;;;10.53;;
5650;SDS011;40241;52.684;9.758;2023-02-23T03:47:24;22.10;;;10.83;;
5650;SDS011;40241;52.684;9.758;2023-02-23T03:53:16;17.63;;;11.67;;
5650;SDS011;40241;52.684;9.758;2023-02-23T03:56:05;26.07;;;12.50;;
5650;SDS011;40241;52.684;9.758;2023-02-23T03:58:55;20.60;;;11.70;;
5650;SDS011;40241;52.684;9.758;2023-02-23T04:01:44;17.53;;;11.67;;
5650;SDS011;40241;52.684;9.758;2023-02-23T04:04:29;21.00;;;12.30;;
5650;SDS011;40241;52.684;9.758;2023-02-23T04:07:14;18.10;;;11.67;;
5650;SDS011;40241;52.684;9.758;2023-02-23T04:10:01;21.90;;;11.40;;
5650;SDS011;40241;52.684;9.758;2023-02-23T04:12:49;24.60;;;11.83;;
5650;SDS011;40241;52.684;9.758;2023-02-23T04:15:49;22.83;;;12.60;;
5650;SDS011;40241;52.684;9.758;2023-02-23T04:18:25;20.43;;;12.80;;
5650;SDS011;40241;52.684;9.758;2023-02-23T04:20:53;19.73;;;11.40;;
5650;SDS011;40241;52.684;9.758;2023-02-23T04:23:19;23.93;;;12.77;;
5650;SDS011;40241;52.684;9.758;2023-02-23T04:25:47;19.73;;;12.20;;
5650;SDS011;40241;52.684;9.758;2023-02-23T04:28:16;23.17;;;12.90;;
5650;SDS011;40241;52.684;9.758;2023-02-23T04:30:42;22.17;;;12.67;;
5650;SDS011;40241;52.684;9.758;2023-02-23T04:33:07;25.10;;;13.37;;
5650;SDS011;40241;52.684;9.758;2023-02-23T04:35:33;26.67;;;14.40;;
5650;SDS011;40241;52.684;9.758;2023-02-23T04:37:59;22.60;;;12.63;;
5650;SDS011;40241;52.684;9.758;2023-02-23T04:40:25;21.00;;;12.40;;
5650;SDS011;40241;52.684;9.758;2023-02-23T04:42:51;23.30;;;13.50;;
5650;SDS011;40241;52.684;9.758;2023-02-23T04:45:17;24.10;;;14.53;;
5650;SDS011;40241;52.684;9.758;2023-02-23T04:47:42;27.40;;;14.10;;
5650;SDS011;40241;52.684;9.758;2023-02-23T04:50:08;28.37;;;14.30;;
5650;SDS011;40241;52.684;9.758;2023-02-23T04:52:34;22.40;;;13.07;;
5650;SDS011;40241;52.684;9.758;2023-02-23T04:55:01;24.17;;;13.50;;
5650;SDS011;40241;52.684;9.758;2023-02-23T04:57:27;21.90;;;12.97;;
5650;SDS011;40241;52.684;9.758;2023-02-23T04:59:53;24.03;;;13.60;;
5650;SDS011;40241;52.684;9.758;2023-02-23T05:02:18;24.60;;;14.10;;
5650;SDS011;40241;52.684;9.758;2023-02-23T05:04:43;21.23;;;13.33;;
5650;SDS011;40241;52.684;9.758;2023-02-23T05:07:09;20.43;;;13.77;;
5650;SDS011;40241;52.684;9.758;2023-02-23T05:09:34;29.03;;;13.63;;
5650;SDS011;40241;52.684;9.758;2023-02-23T05:12:00;27.53;;;14.07;;
5650;SDS011;40241;52.684;9.758;2023-02-23T05:14:25;25.43;;;14.57;;
5650;SDS011;40241;52.684;9.758;2023-02-23T05:16:51;24.00;;;14.10;;
5650;SDS011;40241;52.684;9.758;2023-02-23T05:19:17;29.93;;;15.07;;
5650;SDS011;40241;52.684;9.758;2023-02-23T05:21:42;26.47;;;15.00;;
5650;SDS011;40241;52.684;9.758;2023-02-23T05:24:08;23.10;;;14.00;;
5650;SDS011;40241;52.684;9.758;2023-02-23T05:26:34;27.53;;;15.30;;
5650;SDS011;40241;52.684;9.758;2023-02-23T05:28:59;26.87;;;14.73;;
5650;SDS011;40241;52.684;9.758;2023-02-23T05:31:26;30.60;;;15.60;;
5650;SDS011;40241;52.684;9.758;2023-02-23T05:33:51;22.43;;;14.50;;
5650;SDS011;40241;52.684;9.758;2023-02-23T05:36:17;26.50;;;14.93;;
5650;SDS011;40241;52.684;9.758;2023-02-23T05:38:44;26.87;;;15.57;;
5650;SDS011;40241;52.684;9.758;2023-02-23T05:41:11;27.73;;;14.70;;
5650;SDS011;40241;52.684;9.758;2023-02-23T05:43:38;29.70;;;15.33;;
5650;SDS011;40241;52.684;9.758;2023-02-23T05:46:07;25.70;;;14.23;;
5650;SDS011;40241;52.684;9.758;2023-02-23T05:48:38;31.70;;;16.90;;
5650;SDS011;40241;52.684;9.758;2023-02-23T05:51:05;27.87;;;15.60;;
5650;SDS011;40241;52.684;9.758;2023-02-23T05:53:33;29.87;;;15.87;;
5650;SDS011;40241;52.684;9.758;2023-02-23T05:55:58;30.10;;;16.70;;
5650;SDS011;40241;52.684;9.758;2023-02-23T05:58:25;31.73;;;17.87;;
5650;SDS011;40241;52.684;9.758;2023-02-23T06:00:51;30.77;;;18.20;;
5650;SDS011;40241;52.684;9.758;2023-02-23T06:03:17;37.23;;;17.93;;
5650;SDS011;40241;52.684;9.758;2023-02-23T06:05:47;33.27;;;18.17;;
5650;SDS011;40241;52.684;9.758;2023-02-23T06:08:14;29.50;;;16.90;;
5650;SDS011;40241;52.684;9.758;2023-02-23T06:10:39;34.67;;;18.37;;
5650;SDS011;40241;52.684;9.758;2023-02-23T06:13:05;31.20;;;17.80;;
5650;SDS011;40241;52.684;9.758;2023-02-23T06:15:30;31.90;;;16.10;;
5650;SDS011;40241;52.684;9.758;2023-02-23T06:17:56;29.47;;;16.47;;
5650;SDS011;40241;52.684;9.758;2023-02-23T06:20:21;32.03;;;17.20;;
5650;SDS011;40241;52.684;9.758;2023-02-23T06:22:47;26.20;;;16.23;;
5650;SDS011;40241;52.684;9.758;2023-02-23T06:25:12;27.90;;;16.50;;
5650;SDS011;40241;52.684;9.758;2023-02-23T06:27:38;32.00;;;16.67;;
5650;SDS011;40241;52.684;9.758;2023-02-23T06:30:04;35.07;;;18.33;;
5650;SDS011;40241;52.684;9.758;2023-02-23T06:32:30;31.57;;;17.23;;
5650;SDS011;40241;52.684;9.758;2023-02-23T06:34:55;31.17;;;17.43;;
5650;SDS011;40241;52.684;9.758;2023-02-23T06:37:21;31.50;;;17.87;;
5650;SDS011;40241;52.684;9.758;2023-02-23T06:39:46;30.83;;;17.13;;
5650;SDS011;40241;52.684;9.758;2023-02-23T06:42:12;28.50;;;18.17;;
5650;SDS011;40241;52.684;9.758;2023-02-23T06:44:37;29.97;;;18.03;;
5650;SDS011;40241;52.684;9.758;2023-02-23T06:47:04;33.67;;;19.33;;
5650;SDS011;40241;52.684;9.758;2023-02-23T06:49:30;31.27;;;17.80;;
5650;SDS011;40241;52.684;9.758;2023-02-23T06:51:55;35.27;;;18.17;;
5650;SDS011;40241;52.684;9.758;2023-02-23T06:54:21;32.70;;;18.47;;
5650;SDS011;40241;52.684;9.758;2023-02-23T06:56:47;31.70;;;17.70;;
5650;SDS011;40241;52.684;9.758;2023-02-23T06:59:13;36.00;;;19.57;;
5650;SDS011;40241;52.684;9.758;2023-02-23T07:01:39;34.73;;;18.27;;
5650;SDS011;40241;52.684;9.758;2023-02-23T07:04:06;33.33;;;19.20;;
5650;SDS011;40241;52.684;9.758;2023-02-23T07:06:31;33.20;;;17.57;;
5650;SDS011;40241;52.684;9.758;2023-02-23T07:08:57;31.90;;;17.87;;
5650;SDS011;40241;52.684;9.758;2023-02-23T07:11:22;35.07;;;18.27;;
5650;SDS011;40241;52.684;9.758;2023-02-23T07:13:47;32.67;;;18.30;;
5650;SDS011;40241;52.684;9.758;2023-02-23T07:16:13;29.53;;;16.90;;
5650;SDS011;40241;52.684;9.758;2023-02-23T07:18:40;31.70;;;17.40;;
5650;SDS011;40241;52.684;9.758;2023-02-23T07:21:05;29.97;;;18.37;;
5650;SDS011;40241;52.684;9.758;2023-02-23T07:23:31;31.27;;;17.60;;
5650;SDS011;40241;52.684;9.758;2023-02-23T07:25:57;29.63;;;17.47;;
5650;SDS011;40241;52.684;9.758;2023-02-23T07:28:24;31.47;;;18.50;;
5650;SDS011;40241;52.684;9.758;2023-02-23T07:30:56;32.30;;;18.60;;
5650;SDS011;40241;52.684;9.758;2023-02-23T07:33:22;36.67;;;18.47;;
5650;SDS011;40241;52.684;9.758;2023-02-23T07:35:48;31.10;;;18.00;;
5650;SDS011;40241;52.684;9.758;2023-02-23T07:38:14;35.80;;;18.90;;
5650;SDS011;40241;52.684;9.758;2023-02-23T07:40:39;32.23;;;18.50;;
5650;SDS011;40241;52.684;9.758;2023-02-23T07:43:05;33.10;;;18.47;;
5650;SDS011;40241;52.684;9.758;2023-02-23T07:45:30;30.10;;;17.40;;
5650;SDS011;40241;52.684;9.758;2023-02-23T07:47:56;36.23;;;19.37;;
5650;SDS011;40241;52.684;9.758;2023-02-23T07:50:21;34.33;;;19.50;;
5650;SDS011;40241;52.684;9.758;2023-02-23T07:52:46;38.13;;;19.37;;
5650;SDS011;40241;52.684;9.758;2023-02-23T07:55:12;34.10;;;18.97;;
5650;SDS011;40241;52.684;9.758;2023-02-23T07:57:37;38.30;;;19.40;;
5650;SDS011;40241;52.684;9.758;2023-02-23T08:00:04;32.20;;;18.93;;
5650;SDS011;40241;52.684;9.758;2023-02-23T08:02:30;36.30;;;19.50;;
5650;SDS011;40241;52.684;9.758;2023-02-23T08:04:56;40.67;;;20.40;;
5650;SDS011;40241;52.684;9.758;2023-02-23T08:07:22;35.37;;;19.23;;
5650;SDS011;40241;52.684;9.758;2023-02-23T08:09:49;38.30;;;19.80;;
5650;SDS011;40241;52.684;9.758;2023-02-23T08:12:15;32.73;;;19.23;;
5650;SDS011;40241;52.684;9.758;2023-02-23T08:14:41;36.47;;;20.00;;
5650;SDS011;40241;52.684;9.758;2023-02-23T08:17:07;32.07;;;19.77;;
5650;SDS011;40241;52.684;9.758;2023-02-23T08:19:32;38.40;;;21.83;;
5650;SDS011;40241;52.684;9.758;2023-02-23T08:21:58;39.07;;;21.80;;
5650;SDS011;40241;52.684;9.758;2023-02-23T08:24:24;40.13;;;23.00;;
5650;SDS011;40241;52.684;9.758;2023-02-23T08:26:50;34.47;;;20.17;;
5650;SDS011;40241;52.684;9.758;2023-02-23T08:29:16;41.30;;;22.60;;
5650;SDS011;40241;52.684;9.758;2023-02-23T08:31:41;34.70;;;20.37;;
5650;SDS011;40241;52.684;9.758;2023-02-23T08:34:06;43.93;;;20.83;;
5650;SDS011;40241;52.684;9.758;2023-02-23T08:36:32;37.47;;;21.53;;
5650;SDS011;40241;52.684;9.758;2023-02-23T08:38:57;35.37;;;20.10;;
5650;SDS011;40241;52.684;9.758;2023-02-23T08:41:24;42.07;;;20.60;;
5650;SDS011;40241;52.684;9.758;2023-02-23T08:43:51;36.47;;;20.37;;
5650;SDS011;40241;52.684;9.758;2023-02-23T08:46:17;34.80;;;20.33;;
5650;SDS011;40241;52.684;9.758;2023-02-23T08:48:44;41.67;;;21.40;;
5650;SDS011;40241;52.684;9.758;2023-02-23T08:51:10;41.10;;;22.70;;
5650;SDS011;40241;52.684;9.758;2023-02-23T08:53:36;38.60;;;20.30;;
5650;SDS011;40241;52.684;9.758;2023-02-23T08:56:03;37.43;;;19.97;;
5650;SDS011;40241;52.684;9.758;2023-02-23T08:58:30;39.23;;;21.53;;
5650;SDS011;40241;52.684;9.758;2023-02-23T09:00:57;37.17;;;19.83;;
5650;SDS011;40241;52.684;9.758;2023-02-23T09:03:25;36.50;;;19.93;;
5650;SDS011;40241;52.684;9.758;2023-02-23T09:05:54;38.57;;;22.50;;
5650;SDS011;40241;52.684;9.758;2023-02-23T09:08:21;35.67;;;19.87;;
5650;SDS011;40241;52.684;9.758;2023-02-23T09:10:46;37.13;;;22.17;;
5650;SDS011;40241;52.684;9.758;2023-02-23T09:13:12;41.27;;;22.20;;
5650;SDS011;40241;52.684;9.758;2023-02-23T09:15:38;40.77;;;20.57;;
5650;SDS011;40241;52.684;9.758;2023-02-23T09:18:05;41.27;;;22.27;;
5650;SDS011;40241;52.684;9.758;2023-02-23T09:20:31;41.13;;;23.37;;
5650;SDS011;40241;52.684;9.758;2023-02-23T09:22:56;42.50;;;22.97;;
5650;SDS011;40241;52.684;9.758;2023-02-23T09:25:22;37.37;;;20.43;;
5650;SDS011;40241;52.684;9.758;2023-02-23T09:27:48;37.00;;;20.30;;
5650;SDS011;40241;52.684;9.758;2023-02-23T09:30:14;40.67;;;22.20;;
5650;SDS011;40241;52.684;9.758;2023-02-23T09:32:47;39.80;;;19.97;;
5650;SDS011;40241;52.684;9.758;2023-02-23T09:35:17;38.07;;;22.00;;
5650;SDS011;40241;52.684;9.758;2023-02-23T09:37:48;38.47;;;21.17;;
5650;SDS011;40241;52.684;9.758;2023-02-23T09:40:20;37.83;;;20.07;;
5650;SDS011;40241;52.684;9.758;2023-02-23T09:43:21;36.27;;;20.90;;
5650;SDS011;40241;52.684;9.758;2023-02-23T09:45:52;29.20;;;18.10;;
5650;SDS011;40241;52.684;9.758;2023-02-23T09:48:20;33.80;;;18.97;;
5650;SDS011;40241;52.684;9.758;2023-02-23T09:50:55;33.47;;;19.20;;
5650;SDS011;40241;52.684;9.758;2023-02-23T09:53:26;36.73;;;19.87;;
5650;SDS011;40241;52.684;9.758;2023-02-23T09:55:56;34.47;;;19.43;;
5650;SDS011;40241;52.684;9.758;2023-02-23T09:58:24;34.20;;;19.60;;
5650;SDS011;40241;52.684;9.758;2023-02-23T10:01:05;33.83;;;17.53;;
5650;SDS011;40241;52.684;9.758;2023-02-23T10:03:33;27.40;;;17.40;;
5650;SDS011;40241;52.684;9.758;2023-02-23T10:06:05;26.50;;;15.73;;
5650;SDS011;40241;52.684;9.758;2023-02-23T10:11:26;28.70;;;16.37;;
5650;SDS011;40241;52.684;9.758;2023-02-23T10:22:32;22.80;;;14.97;;
5650;SDS011;40241;52.684;9.758;2023-02-23T10:25:01;22.03;;;14.20;;
5650;SDS011;40241;52.684;9.758;2023-02-23T10:27:44;23.20;;;14.40;;
5650;SDS011;40241;52.684;9.758;2023-02-23T10:30:20;24.60;;;15.20;;
5650;SDS011;40241;52.684;9.758;2023-02-23T10:35:26;22.47;;;13.90;;
5650;SDS011;40241;52.684;9.758;2023-02-23T10:37:53;20.20;;;14.80;;
5650;SDS011;40241;52.684;9.758;2023-02-23T10:40:21;20.47;;;13.90;;
5650;SDS011;40241;52.684;9.758;2023-02-23T10:42:49;19.47;;;13.00;;
5650;SDS011;40241;52.684;9.758;2023-02-23T10:45:16;16.90;;;12.27;;
5650;SDS011;40241;52.684;9.758;2023-02-23T10:47:47;19.97;;;13.60;;
5650;SDS011;40241;52.684;9.758;2023-02-23T10:50:15;25.03;;;14.27;;
5650;SDS011;40241;52.684;9.758;2023-02-23T10:52:42;21.50;;;13.47;;
5650;SDS011;40241;52.684;9.758;2023-02-23T10:57:59;20.40;;;13.70;;
5650;SDS011;40241;52.684;9.758;2023-02-23T11:00:27;19.93;;;13.50;;
5650;SDS011;40241;52.684;9.758;2023-02-23T11:02:57;22.93;;;14.40;;
5650;SDS011;40241;52.684;9.758;2023-02-23T11:05:27;24.07;;;13.87;;
5650;SDS011;40241;52.684;9.758;2023-02-23T11:08:13;21.80;;;14.57;;
5650;SDS011;40241;52.684;9.758;2023-02-23T11:10:53;21.13;;;14.40;;
5650;SDS011;40241;52.684;9.758;2023-02-23T11:13:27;24.90;;;14.80;;
5650;SDS011;40241;52.684;9.758;2023-02-23T11:16:05;25.73;;;14.87;;
5650;SDS011;40241;52.684;9.758;2023-02-23T11:18:34;26.33;;;15.77;;
5650;SDS011;40241;52.684;9.758;2023-02-23T11:21:01;29.20;;;16.70;;
5650;SDS011;40241;52.684;9.758;2023-02-23T11:23:33;33.10;;;17.33;;
5650;SDS011;40241;52.684;9.758;2023-02-23T11:26:01;36.10;;;18.77;;
5650;SDS011;40241;52.684;9.758;2023-02-23T11:28:31;31.53;;;17.90;;
5650;SDS011;40241;52.684;9.758;2023-02-23T11:31:12;35.07;;;19.77;;
5650;SDS011;40241;52.684;9.758;2023-02-23T11:33:41;36.70;;;18.30;;
5650;SDS011;40241;52.684;9.758;2023-02-23T11:36:14;38.43;;;19.83;;
5650;SDS011;40241;52.684;9.758;2023-02-23T11:38:43;41.00;;;20.90;;
5650;SDS011;40241;52.684;9.758;2023-02-23T11:41:22;43.83;;;23.03;;
5650;SDS011;40241;52.684;9.758;2023-02-23T11:43:55;46.77;;;23.20;;
5650;SDS011;40241;52.684;9.758;2023-02-23T11:46:22;54.07;;;24.60;;
5650;SDS011;40241;52.684;9.758;2023-02-23T11:49:00;50.33;;;23.90;;
5650;SDS011;40241;52.684;9.758;2023-02-23T11:54:06;48.17;;;22.30;;
5650;SDS011;40241;52.684;9.758;2023-02-23T11:56:39;48.37;;;22.90;;
5650;SDS011;40241;52.684;9.758;2023-02-23T11:59:14;52.90;;;24.13;;
5650;SDS011;40241;52.684;9.758;2023-02-23T12:01:43;48.30;;;23.03;;
5650;SDS011;40241;52.684;9.758;2023-02-23T12:06:53;51.13;;;22.00;;
5650;SDS011;40241;52.684;9.758;2023-02-23T12:09:40;42.37;;;21.87;;
5650;SDS011;40241;52.684;9.758;2023-02-23T12:12:10;50.43;;;22.77;;
5650;SDS011;40241;52.684;9.758;2023-02-23T12:14:40;42.97;;;20.63;;
5650;SDS011;40241;52.684;9.758;2023-02-23T12:17:17;42.47;;;18.97;;
5650;SDS011;40241;52.684;9.758;2023-02-23T12:19:54;44.73;;;20.43;;
5650;SDS011;40241;52.684;9.758;2023-02-23T12:22:31;41.23;;;19.10;;
5650;SDS011;40241;52.684;9.758;2023-02-23T12:25:44;42.17;;;20.77;;
5650;SDS011;40241;52.684;9.758;2023-02-23T12:30:39;36.10;;;18.37;;
5650;SDS011;40241;52.684;9.758;2023-02-23T12:33:11;39.93;;;20.03;;
5650;SDS011;40241;52.684;9.758;2023-02-23T12:35:48;40.67;;;18.87;;
5650;SDS011;40241;52.684;9.758;2023-02-23T12:41:04;37.10;;;16.57;;
5650;SDS011;40241;52.684;9.758;2023-02-23T12:43:39;36.07;;;18.53;;
5650;SDS011;40241;52.684;9.758;2023-02-23T12:46:08;35.27;;;16.87;;
5650;SDS011;40241;52.684;9.758;2023-02-23T12:51:20;37.10;;;18.07;;
5650;SDS011;40241;52.684;9.758;2023-02-23T12:53:51;33.83;;;17.30;;
5650;SDS011;40241;52.684;9.758;2023-02-23T13:01:53;41.70;;;18.70;;
5650;SDS011;40241;52.684;9.758;2023-02-23T13:07:11;34.53;;;16.10;;
5650;SDS011;40241;52.684;9.758;2023-02-23T13:09:42;26.57;;;14.60;;
5650;SDS011;40241;52.684;9.758;2023-02-23T13:12:22;29.50;;;14.83;;
5650;SDS011;40241;52.684;9.758;2023-02-23T13:15:13;31.90;;;14.77;;
5650;SDS011;40241;52.684;9.758;2023-02-23T13:18:08;30.43;;;13.87;;
5650;SDS011;40241;52.684;9.758;2023-02-23T13:20:43;28.47;;;14.00;;
5650;SDS011;40241;52.684;9.758;2023-02-23T13:31:50;30.27;;;14.60;;
5650;SDS011;40241;52.684;9.758;2023-02-23T13:34:26;32.53;;;14.50;;
5650;SDS011;40241;52.684;9.758;2023-02-23T13:36:55;34.30;;;14.27;;
5650;SDS011;40241;52.684;9.758;2023-02-23T13:45:01;28.70;;;13.57;;
5650;SDS011;40241;52.684;9.758;2023-02-23T13:52:43;35.83;;;14.00;;
5650;SDS011;40241;52.684;9.758;2023-02-23T13:58:12;29.57;;;14.60;;
5650;SDS011;40241;52.684;9.758;2023-02-23T14:00:40;32.60;;;14.70;;
5650;SDS011;40241;52.684;9.758;2023-02-23T14:03:16;30.70;;;13.90;;
5650;SDS011;40241;52.684;9.758;2023-02-23T14:05:48;28.23;;;13.27;;
5650;SDS011;40241;52.684;9.758;2023-02-23T14:08:29;33.07;;;14.57;;
5650;SDS011;40241;52.684;9.758;2023-02-23T14:10:58;28.53;;;14.13;;
5650;SDS011;40241;52.684;9.758;2023-02-23T14:13:31;35.63;;;16.90;;
5650;SDS011;40241;52.684;9.758;2023-02-23T14:18:49;37.10;;;15.87;;
5650;SDS011;40241;52.684;9.758;2023-02-23T14:21:29;33.57;;;15.37;;
5650;SDS011;40241;52.684;9.758;2023-02-23T14:31:53;36.33;;;16.20;;
5650;SDS011;40241;52.684;9.758;2023-02-23T14:34:43;37.43;;;15.37;;
5650;SDS011;40241;52.684;9.758;2023-02-23T14:40:10;31.20;;;16.00;;
5650;SDS011;40241;52.684;9.758;2023-02-23T14:42:39;35.13;;;14.80;;
5650;SDS011;40241;52.684;9.758;2023-02-23T14:47:51;36.17;;;14.87;;
5650;SDS011;40241;52.684;9.758;2023-02-23T14:50:26;32.43;;;15.00;;
5650;SDS011;40241;52.684;9.758;2023-02-23T14:52:54;30.50;;;14.57;;
5650;SDS011;40241;52.684;9.758;2023-02-23T14:55:27;28.40;;;14.10;;
5650;SDS011;40241;52.684;9.758;2023-02-23T14:57:54;28.67;;;14.87;;
5650;SDS011;40241;52.684;9.758;2023-02-23T15:00:25;33.97;;;14.40;;
5650;SDS011;40241;52.684;9.758;2023-02-23T15:05:33;26.90;;;12.00;;
5650;SDS011;40241;52.684;9.758;2023-02-23T15:08:05;27.70;;;13.17;;
5650;SDS011;40241;52.684;9.758;2023-02-23T15:10:39;25.57;;;12.80;;
5650;SDS011;40241;52.684;9.758;2023-02-23T15:13:25;30.10;;;12.37;;
5650;SDS011;40241;52.684;9.758;2023-02-23T15:15:53;27.43;;;11.87;;
5650;SDS011;40241;52.684;9.758;2023-02-23T15:18:30;30.23;;;12.40;;
5650;SDS011;40241;52.684;9.758;2023-02-23T15:21:03;22.77;;;11.37;;
5650;SDS011;40241;52.684;9.758;2023-02-23T15:23:35;24.67;;;12.90;;
5650;SDS011;40241;52.684;9.758;2023-02-23T15:26:14;23.13;;;12.07;;
5650;SDS011;40241;52.684;9.758;2023-02-23T15:28:49;23.00;;;10.57;;
5650;SDS011;40241;52.684;9.758;2023-02-23T15:31:14;29.60;;;13.27;;
5650;SDS011;40241;52.684;9.758;2023-02-23T15:33:40;22.23;;;11.50;;
5650;SDS011;40241;52.684;9.758;2023-02-23T15:36:24;25.40;;;11.67;;
5650;SDS011;40241;52.684;9.758;2023-02-23T15:38:54;21.40;;;10.30;;
5650;SDS011;40241;52.684;9.758;2023-02-23T15:41:26;24.77;;;10.50;;
5650;SDS011;40241;52.684;9.758;2023-02-23T15:47:03;34.90;;;12.00;;
5650;SDS011;40241;52.684;9.758;2023-02-23T15:49:35;30.40;;;13.43;;
5650;SDS011;40241;52.684;9.758;2023-02-23T15:52:08;30.57;;;13.43;;
5650;SDS011;40241;52.684;9.758;2023-02-23T15:54:50;33.43;;;12.70;;
5650;SDS011;40241;52.684;9.758;2023-02-23T15:57:19;38.20;;;15.37;;
5650;SDS011;40241;52.684;9.758;2023-02-23T15:59:50;37.93;;;13.87;;
5650;SDS011;40241;52.684;9.758;2023-02-23T16:02:18;44.70;;;15.90;;
5650;SDS011;40241;52.684;9.758;2023-02-23T16:04:47;39.80;;;14.47;;
5650;SDS011;40241;52.684;9.758;2023-02-23T16:09:45;42.27;;;15.17;;
5650;SDS011;40241;52.684;9.758;2023-02-23T16:12:35;43.03;;;14.47;;
5650;SDS011;40241;52.684;9.758;2023-02-23T16:15:13;45.40;;;15.20;;
5650;SDS011;40241;52.684;9.758;2023-02-23T16:17:47;43.80;;;16.30;;
5650;SDS011;40241;52.684;9.758;2023-02-23T16:25:55;56.67;;;15.57;;
5650;SDS011;40241;52.684;9.758;2023-02-23T16:28:26;57.43;;;16.90;;
5650;SDS011;40241;52.684;9.758;2023-02-23T16:31:04;51.50;;;17.70;;
5650;SDS011;40241;52.684;9.758;2023-02-23T16:38:37;60.23;;;17.30;;
5650;SDS011;40241;52.684;9.758;2023-02-23T16:41:23;55.77;;;16.97;;
5650;SDS011;40241;52.684;9.758;2023-02-23T16:43:50;59.67;;;17.70;;
5650;SDS011;40241;52.684;9.758;2023-02-23T16:46:18;56.03;;;18.10;;
5650;SDS011;40241;52.684;9.758;2023-02-23T16:48:45;66.43;;;18.33;;
5650;SDS011;40241;52.684;9.758;2023-02-23T16:51:14;65.17;;;18.63;;
5650;SDS011;40241;52.684;9.758;2023-02-23T16:53:44;62.13;;;17.70;;
5650;SDS011;40241;52.684;9.758;2023-02-23T16:56:10;57.10;;;17.30;;
5650;SDS011;40241;52.684;9.758;2023-02-23T16:58:38;60.30;;;18.20;;
5650;SDS011;40241;52.684;9.758;2023-02-23T17:01:06;61.60;;;18.80;;
5650;SDS011;40241;52.684;9.758;2023-02-23T17:03:37;62.63;;;17.27;;
5650;SDS011;40241;52.684;9.758;2023-02-23T17:06:02;55.57;;;17.90;;
5650;SDS011;40241;52.684;9.758;2023-02-23T17:08:28;53.97;;;18.53;;
5650;SDS011;40241;52.684;9.758;2023-02-23T17:10:54;57.53;;;18.40;;
5650;SDS011;40241;52.684;9.758;2023-02-23T17:13:24;60.13;;;18.27;;
5650;SDS011;40241;52.684;9.758;2023-02-23T17:15:51;73.37;;;20.53;;
5650;SDS011;40241;52.684;9.758;2023-02-23T17:18:20;61.50;;;17.70;;
5650;SDS011;40241;52.684;9.758;2023-02-23T17:20:50;63.83;;;18.57;;
5650;SDS011;40241;52.684;9.758;2023-02-23T17:23:17;64.60;;;16.93;;